TAP96AW LPMA-LPPT
Flight info
| Callsign | TAP96AW |
|---|---|
| Flight time | 1h 11m |
| Altitude | 36000 |
| Route | DEGUN DCT NARTA DCT ESUTI |
| Aircraft | A320/M-SDE3FGHIJ1RWXYZ/LB1 |
Departure
| Time | 2026-05-04 00:18 |
|---|---|
| Airport | Cristiano Ronaldo International Airport (LPMA) |
Arrival
| Time | 2026-05-04 01:29 |
|---|---|
| Airport | Lisbon Humberto Delgado Airport (LPPT) |
| Time | Latitude | Longitude | Altitude | Speed | Heading |
|---|---|---|---|---|---|
| 2026-05-04 00:07 | 32.69360 | -16.77657 | 173 ft | 0 kts | 137° |
| 2026-05-04 00:11 | 32.69371 | -16.77670 | 173 ft | 4 kts | 142° |
| 2026-05-04 00:11 | 32.69394 | -16.77687 | 173 ft | 4 kts | 160° |
| 2026-05-04 00:12 | 32.69418 | -16.77691 | 174 ft | 4 kts | 203° |
| 2026-05-04 00:12 | 32.69429 | -16.77683 | 174 ft | 1 kts | 226° |
| 2026-05-04 00:12 | 32.69430 | -16.77682 | 174 ft | 1 kts | 226° |
| 2026-05-04 00:14 | 32.69415 | -16.77701 | 174 ft | 7 kts | 226° |
| 2026-05-04 00:15 | 32.69369 | -16.77757 | 172 ft | 12 kts | 226° |
| 2026-05-04 00:15 | 32.69309 | -16.77831 | 170 ft | 14 kts | 227° |
| 2026-05-04 00:15 | 32.69294 | -16.77945 | 168 ft | 16 kts | 275° |
| 2026-05-04 00:15 | 32.69260 | -16.78079 | 164 ft | 20 kts | 224° |
| 2026-05-04 00:16 | 32.69147 | -16.78199 | 158 ft | 23 kts | 225° |
| 2026-05-04 00:16 | 32.69039 | -16.78327 | 153 ft | 21 kts | 223° |
| 2026-05-04 00:16 | 32.68926 | -16.78409 | 150 ft | 19 kts | 190° |
| 2026-05-04 00:16 | 32.68911 | -16.78473 | 149 ft | 10 kts | 3° |
| 2026-05-04 00:17 | 32.68928 | -16.78453 | 150 ft | 0 kts | 50° |
| 2026-05-04 00:17 | 32.68952 | -16.78419 | 150 ft | 26 kts | 50° |
| 2026-05-04 00:17 | 32.69281 | -16.78039 | 166 ft | 106 kts | 43° |
| 2026-05-04 00:18 | 32.69976 | -16.77232 | 256 ft | 167 kts | 44° |
| 2026-05-04 00:18 | 32.70770 | -16.76206 | 1063 ft | 171 kts | 57° |
| 2026-05-04 00:18 | 32.71073 | -16.74834 | 1857 ft | 183 kts | 95° |
| 2026-05-04 00:18 | 32.70689 | -16.73310 | 2356 ft | 203 kts | 113° |
| 2026-05-04 00:19 | 32.70153 | -16.71659 | 2665 ft | 227 kts | 112° |
| 2026-05-04 00:19 | 32.69560 | -16.69811 | 3054 ft | 252 kts | 112° |
| 2026-05-04 00:19 | 32.69139 | -16.68483 | 3374 ft | 266 kts | 111° |
| 2026-05-04 00:19 | 32.68484 | -16.66395 | 4151 ft | 273 kts | 111° |
| 2026-05-04 00:20 | 32.67819 | -16.64263 | 5027 ft | 278 kts | 111° |
| 2026-05-04 00:20 | 32.67147 | -16.62098 | 5902 ft | 283 kts | 111° |
| 2026-05-04 00:20 | 32.66462 | -16.59884 | 6756 ft | 287 kts | 111° |
| 2026-05-04 00:20 | 32.65881 | -16.56805 | 7837 ft | 293 kts | 90° |
| 2026-05-04 00:21 | 32.66006 | -16.55170 | 8393 ft | 296 kts | 77° |
| 2026-05-04 00:21 | 32.66728 | -16.52886 | 9222 ft | 298 kts | 58° |
| 2026-05-04 00:21 | 32.68025 | -16.50965 | 10052 ft | 300 kts | 41° |
| 2026-05-04 00:21 | 32.69566 | -16.49226 | 10535 ft | 316 kts | 41° |
| 2026-05-04 00:22 | 32.71213 | -16.47365 | 10787 ft | 339 kts | 41° |
| 2026-05-04 00:22 | 32.72955 | -16.45385 | 11304 ft | 350 kts | 42° |
| 2026-05-04 00:22 | 32.74721 | -16.43372 | 11987 ft | 356 kts | 41° |
| 2026-05-04 00:22 | 32.76524 | -16.41313 | 12695 ft | 361 kts | 41° |
| 2026-05-04 00:23 | 32.78344 | -16.39231 | 13385 ft | 366 kts | 41° |
| 2026-05-04 00:23 | 32.80188 | -16.37120 | 14064 ft | 371 kts | 41° |
| 2026-05-04 00:23 | 32.82055 | -16.34984 | 14654 ft | 375 kts | 41° |
| 2026-05-04 00:23 | 32.83945 | -16.32820 | 15270 ft | 379 kts | 41° |
| 2026-05-04 00:24 | 32.85856 | -16.30629 | 15878 ft | 383 kts | 41° |
| 2026-05-04 00:24 | 32.87784 | -16.28417 | 16500 ft | 387 kts | 41° |
| 2026-05-04 00:24 | 32.89728 | -16.26189 | 17092 ft | 391 kts | 41° |
| 2026-05-04 00:24 | 32.91706 | -16.23924 | 17695 ft | 396 kts | 41° |
| 2026-05-04 00:25 | 32.93698 | -16.21638 | 18278 ft | 400 kts | 41° |
| 2026-05-04 00:25 | 32.95702 | -16.19332 | 18786 ft | 404 kts | 41° |
| 2026-05-04 00:25 | 32.97738 | -16.16984 | 19287 ft | 408 kts | 41° |
| 2026-05-04 00:25 | 32.99785 | -16.14622 | 19784 ft | 412 kts | 41° |
| 2026-05-04 00:26 | 33.01858 | -16.12231 | 20273 ft | 416 kts | 40° |
| 2026-05-04 00:26 | 33.03941 | -16.09832 | 20756 ft | 419 kts | 40° |
| 2026-05-04 00:26 | 33.06053 | -16.07401 | 21228 ft | 423 kts | 40° |
| 2026-05-04 00:26 | 33.08178 | -16.04954 | 21694 ft | 427 kts | 40° |
| 2026-05-04 00:27 | 33.10323 | -16.02481 | 22162 ft | 430 kts | 40° |
| 2026-05-04 00:27 | 33.12483 | -15.99986 | 22622 ft | 434 kts | 40° |
| 2026-05-04 00:27 | 33.14661 | -15.97463 | 23067 ft | 438 kts | 40° |
| 2026-05-04 00:27 | 33.16852 | -15.94923 | 23507 ft | 442 kts | 40° |
| 2026-05-04 00:28 | 33.19066 | -15.92360 | 23929 ft | 445 kts | 40° |
| 2026-05-04 00:28 | 33.21294 | -15.89780 | 24338 ft | 447 kts | 40° |
| 2026-05-04 00:28 | 33.23535 | -15.87183 | 24703 ft | 450 kts | 40° |
| 2026-05-04 00:28 | 33.25785 | -15.84573 | 25065 ft | 453 kts | 40° |
| 2026-05-04 00:29 | 33.28055 | -15.81939 | 25422 ft | 456 kts | 40° |
| 2026-05-04 00:29 | 33.30303 | -15.79322 | 25767 ft | 459 kts | 40° |
| 2026-05-04 00:29 | 33.32629 | -15.76615 | 26113 ft | 462 kts | 40° |
| 2026-05-04 00:29 | 33.34938 | -15.73927 | 26458 ft | 465 kts | 40° |
| 2026-05-04 00:30 | 33.37255 | -15.71229 | 26803 ft | 467 kts | 40° |
| 2026-05-04 00:30 | 33.39595 | -15.68496 | 27142 ft | 470 kts | 40° |
| 2026-05-04 00:30 | 33.41939 | -15.65753 | 27477 ft | 473 kts | 40° |
| 2026-05-04 00:30 | 33.44304 | -15.63018 | 27809 ft | 476 kts | 39° |
| 2026-05-04 00:31 | 33.46724 | -15.60283 | 28130 ft | 478 kts | 39° |
| 2026-05-04 00:31 | 33.49166 | -15.57558 | 28496 ft | 481 kts | 38° |
| 2026-05-04 00:31 | 33.51617 | -15.54836 | 28845 ft | 482 kts | 38° |
| 2026-05-04 00:31 | 33.54087 | -15.52089 | 29174 ft | 485 kts | 38° |
| 2026-05-04 00:32 | 33.56562 | -15.49323 | 29488 ft | 488 kts | 38° |
| 2026-05-04 00:32 | 33.59008 | -15.46575 | 29783 ft | 490 kts | 39° |
| 2026-05-04 00:32 | 33.61535 | -15.43722 | 30080 ft | 493 kts | 39° |
| 2026-05-04 00:32 | 33.64033 | -15.40891 | 30337 ft | 495 kts | 39° |
| 2026-05-04 00:33 | 33.66540 | -15.38045 | 30583 ft | 498 kts | 39° |
| 2026-05-04 00:33 | 33.71590 | -15.32309 | 31071 ft | 502 kts | 39° |
| 2026-05-04 00:33 | 33.74134 | -15.29424 | 31310 ft | 503 kts | 39° |
| 2026-05-04 00:34 | 33.76679 | -15.26538 | 31605 ft | 504 kts | 39° |
| 2026-05-04 00:34 | 33.79224 | -15.23648 | 31992 ft | 503 kts | 39° |
| 2026-05-04 00:34 | 33.81762 | -15.20761 | 32348 ft | 502 kts | 39° |
| 2026-05-04 00:34 | 33.84294 | -15.17876 | 32688 ft | 501 kts | 39° |
| 2026-05-04 00:35 | 33.86825 | -15.14994 | 33022 ft | 501 kts | 39° |
| 2026-05-04 00:35 | 33.89349 | -15.12117 | 33349 ft | 500 kts | 39° |
| 2026-05-04 00:35 | 33.91880 | -15.09229 | 33688 ft | 500 kts | 39° |
| 2026-05-04 00:35 | 33.94367 | -15.06390 | 34009 ft | 500 kts | 39° |
| 2026-05-04 00:36 | 33.96891 | -15.03508 | 34305 ft | 499 kts | 39° |
| 2026-05-04 00:36 | 33.99410 | -15.00631 | 34600 ft | 499 kts | 39° |
| 2026-05-04 00:36 | 34.01924 | -14.97753 | 34897 ft | 498 kts | 39° |
| 2026-05-04 00:36 | 34.04431 | -14.94884 | 35178 ft | 497 kts | 39° |
| 2026-05-04 00:37 | 34.06940 | -14.92012 | 35436 ft | 497 kts | 39° |
| 2026-05-04 00:37 | 34.09445 | -14.89138 | 35746 ft | 496 kts | 39° |
| 2026-05-04 00:37 | 34.11931 | -14.86278 | 36063 ft | 494 kts | 39° |
| 2026-05-04 00:38 | 34.16887 | -14.80561 | 36154 ft | 490 kts | 39° |
| 2026-05-04 00:38 | 34.21807 | -14.74883 | 36147 ft | 489 kts | 39° |
| 2026-05-04 00:39 | 34.26718 | -14.69216 | 36164 ft | 488 kts | 39° |
| 2026-05-04 00:39 | 34.31632 | -14.63546 | 36153 ft | 488 kts | 39° |
| 2026-05-04 00:40 | 34.36540 | -14.57874 | 36157 ft | 488 kts | 39° |
| 2026-05-04 00:40 | 34.41440 | -14.52193 | 36179 ft | 488 kts | 39° |
| 2026-05-04 00:41 | 34.46341 | -14.46492 | 36171 ft | 489 kts | 39° |
| 2026-05-04 00:41 | 34.51309 | -14.40715 | 36161 ft | 500 kts | 39° |
| 2026-05-04 00:42 | 34.56349 | -14.34839 | 36163 ft | 503 kts | 39° |
| 2026-05-04 00:42 | 34.61390 | -14.28930 | 36163 ft | 504 kts | 39° |
| 2026-05-04 00:43 | 34.66441 | -14.23021 | 36193 ft | 504 kts | 39° |
| 2026-05-04 00:43 | 34.71486 | -14.17112 | 36152 ft | 503 kts | 39° |
| 2026-05-04 00:44 | 34.76525 | -14.11197 | 36152 ft | 504 kts | 39° |
| 2026-05-04 00:44 | 34.81571 | -14.05269 | 36154 ft | 504 kts | 39° |
| 2026-05-04 00:45 | 34.86603 | -13.99334 | 36156 ft | 504 kts | 39° |
| 2026-05-04 00:45 | 34.91602 | -13.93423 | 36160 ft | 505 kts | 40° |
| 2026-05-04 00:46 | 34.96666 | -13.87427 | 36188 ft | 505 kts | 39° |
| 2026-05-04 00:46 | 35.01691 | -13.81490 | 36157 ft | 505 kts | 39° |
| 2026-05-04 00:47 | 35.06732 | -13.75517 | 36152 ft | 506 kts | 39° |
| 2026-05-04 00:47 | 35.11812 | -13.69467 | 36151 ft | 506 kts | 39° |
| 2026-05-04 00:48 | 35.16856 | -13.63452 | 36155 ft | 507 kts | 39° |
| 2026-05-04 00:48 | 35.21869 | -13.57473 | 36156 ft | 507 kts | 39° |
| 2026-05-04 00:49 | 35.26912 | -13.51438 | 36156 ft | 507 kts | 40° |
| 2026-05-04 00:49 | 35.31954 | -13.45378 | 36167 ft | 508 kts | 40° |
| 2026-05-04 00:50 | 35.36997 | -13.39317 | 36162 ft | 509 kts | 40° |
| 2026-05-04 00:50 | 35.42064 | -13.33242 | 36165 ft | 509 kts | 40° |
| 2026-05-04 00:51 | 35.47123 | -13.27153 | 36167 ft | 510 kts | 40° |
| 2026-05-04 00:51 | 35.52165 | -13.21060 | 36191 ft | 510 kts | 40° |
| 2026-05-04 00:52 | 35.57225 | -13.14931 | 36182 ft | 510 kts | 40° |
| 2026-05-04 00:52 | 35.62278 | -13.08814 | 36173 ft | 511 kts | 40° |
| 2026-05-04 00:53 | 35.67347 | -13.02686 | 36164 ft | 512 kts | 40° |
| 2026-05-04 00:53 | 35.72409 | -12.96529 | 36162 ft | 512 kts | 40° |
| 2026-05-04 00:54 | 35.77463 | -12.90354 | 36162 ft | 512 kts | 40° |
| 2026-05-04 00:54 | 35.82522 | -12.84176 | 36180 ft | 512 kts | 40° |
| 2026-05-04 00:55 | 35.87569 | -12.78011 | 36168 ft | 512 kts | 40° |
| 2026-05-04 00:55 | 35.92634 | -12.71810 | 36158 ft | 513 kts | 40° |
| 2026-05-04 00:56 | 35.97697 | -12.65599 | 36154 ft | 514 kts | 40° |
| 2026-05-04 00:56 | 36.02767 | -12.59357 | 36152 ft | 514 kts | 40° |
| 2026-05-04 00:57 | 36.07847 | -12.53131 | 36153 ft | 514 kts | 39° |
| 2026-05-04 00:57 | 36.13083 | -12.47119 | 36187 ft | 513 kts | 37° |
| 2026-05-04 00:58 | 36.18387 | -12.41218 | 36176 ft | 513 kts | 37° |
| 2026-05-04 00:58 | 36.23671 | -12.35248 | 36155 ft | 514 kts | 37° |
| 2026-05-04 00:59 | 36.28913 | -12.29201 | 36146 ft | 516 kts | 38° |
| 2026-05-04 00:59 | 36.34110 | -12.23155 | 36147 ft | 516 kts | 38° |
| 2026-05-04 01:00 | 36.39360 | -12.17076 | 36190 ft | 516 kts | 38° |
| 2026-05-04 01:00 | 36.44624 | -12.11025 | 36177 ft | 516 kts | 38° |
| 2026-05-04 01:01 | 36.49888 | -12.04953 | 36171 ft | 516 kts | 38° |
| 2026-05-04 01:01 | 36.55140 | -11.98857 | 36147 ft | 517 kts | 38° |
| 2026-05-04 01:02 | 36.60390 | -11.92743 | 36153 ft | 517 kts | 38° |
| 2026-05-04 01:02 | 36.65649 | -11.86620 | 36182 ft | 518 kts | 38° |
| 2026-05-04 01:03 | 36.70897 | -11.80496 | 36177 ft | 517 kts | 38° |
| 2026-05-04 01:03 | 36.76151 | -11.74357 | 36159 ft | 517 kts | 38° |
| 2026-05-04 01:04 | 36.81391 | -11.68217 | 36162 ft | 517 kts | 38° |
| 2026-05-04 01:04 | 36.86628 | -11.62062 | 36158 ft | 517 kts | 38° |
| 2026-05-04 01:05 | 36.91857 | -11.55903 | 36186 ft | 517 kts | 38° |
| 2026-05-04 01:05 | 36.97088 | -11.49748 | 36176 ft | 516 kts | 38° |
| 2026-05-04 01:06 | 37.01430 | -11.44627 | 36166 ft | 516 kts | 38° |
| 2026-05-04 01:06 | 37.06635 | -11.38468 | 36160 ft | 516 kts | 38° |
| 2026-05-04 01:07 | 37.11847 | -11.32287 | 36164 ft | 515 kts | 38° |
| 2026-05-04 01:07 | 37.17046 | -11.26101 | 36150 ft | 516 kts | 38° |
| 2026-05-04 01:08 | 37.22251 | -11.19906 | 36138 ft | 515 kts | 38° |
| 2026-05-04 01:08 | 37.27445 | -11.13712 | 36136 ft | 515 kts | 38° |
| 2026-05-04 01:09 | 37.32639 | -11.07510 | 36141 ft | 515 kts | 38° |
| 2026-05-04 01:09 | 37.37828 | -11.01300 | 36144 ft | 516 kts | 39° |
| 2026-05-04 01:10 | 37.43017 | -10.95063 | 36057 ft | 517 kts | 39° |
| 2026-05-04 01:10 | 37.45616 | -10.91939 | 35592 ft | 514 kts | 38° |
| 2026-05-04 01:10 | 37.48205 | -10.88828 | 34739 ft | 517 kts | 38° |
| 2026-05-04 01:10 | 37.50792 | -10.85713 | 34318 ft | 510 kts | 38° |
| 2026-05-04 01:11 | 37.53368 | -10.82612 | 33395 ft | 514 kts | 38° |
| 2026-05-04 01:11 | 37.55956 | -10.79496 | 32523 ft | 515 kts | 38° |
| 2026-05-04 01:11 | 37.58525 | -10.76395 | 32028 ft | 508 kts | 38° |
| 2026-05-04 01:11 | 37.61075 | -10.73309 | 31334 ft | 506 kts | 39° |
| 2026-05-04 01:12 | 37.63584 | -10.70265 | 30871 ft | 498 kts | 39° |
| 2026-05-04 01:12 | 37.66040 | -10.67286 | 30293 ft | 494 kts | 38° |
| 2026-05-04 01:12 | 37.68543 | -10.64254 | 29654 ft | 489 kts | 38° |
| 2026-05-04 01:12 | 37.70977 | -10.61303 | 29047 ft | 484 kts | 39° |
| 2026-05-04 01:13 | 37.73398 | -10.58365 | 28494 ft | 479 kts | 38° |
| 2026-05-04 01:13 | 37.75753 | -10.55505 | 27906 ft | 475 kts | 39° |
| 2026-05-04 01:13 | 37.78122 | -10.52622 | 27298 ft | 471 kts | 39° |
| 2026-05-04 01:13 | 37.80473 | -10.49756 | 26745 ft | 467 kts | 39° |
| 2026-05-04 01:14 | 37.82796 | -10.46916 | 26198 ft | 462 kts | 39° |
| 2026-05-04 01:14 | 37.85098 | -10.44098 | 25659 ft | 458 kts | 39° |
| 2026-05-04 01:14 | 37.87349 | -10.41302 | 25341 ft | 448 kts | 40° |
| 2026-05-04 01:14 | 37.89497 | -10.38500 | 25104 ft | 438 kts | 41° |
| 2026-05-04 01:15 | 37.91565 | -10.35710 | 24695 ft | 432 kts | 42° |
| 2026-05-04 01:15 | 37.93567 | -10.32891 | 24247 ft | 430 kts | 45° |
| 2026-05-04 01:15 | 37.95456 | -10.29980 | 23798 ft | 427 kts | 47° |
| 2026-05-04 01:15 | 37.97262 | -10.27005 | 23288 ft | 425 kts | 49° |
| 2026-05-04 01:16 | 37.99034 | -10.23995 | 22326 ft | 432 kts | 49° |
| 2026-05-04 01:16 | 38.00861 | -10.20884 | 21182 ft | 446 kts | 50° |
| 2026-05-04 01:16 | 38.02748 | -10.17704 | 20628 ft | 473 kts | 50° |
| 2026-05-04 01:16 | 38.04800 | -10.14286 | 20011 ft | 483 kts | 50° |
| 2026-05-04 01:17 | 38.06816 | -10.10958 | 19404 ft | 481 kts | 50° |
| 2026-05-04 01:17 | 38.08852 | -10.07618 | 18797 ft | 477 kts | 49° |
| 2026-05-04 01:17 | 38.10910 | -10.04249 | 18143 ft | 473 kts | 50° |
| 2026-05-04 01:17 | 38.12908 | -10.00967 | 17549 ft | 468 kts | 50° |
| 2026-05-04 01:18 | 38.14860 | -9.97754 | 16970 ft | 462 kts | 50° |
| 2026-05-04 01:18 | 38.16811 | -9.94535 | 16394 ft | 457 kts | 50° |
| 2026-05-04 01:18 | 38.18737 | -9.91348 | 15849 ft | 452 kts | 50° |
| 2026-05-04 01:18 | 38.20667 | -9.88157 | 15273 ft | 447 kts | 50° |
| 2026-05-04 01:19 | 38.22548 | -9.85039 | 14724 ft | 441 kts | 50° |
| 2026-05-04 01:19 | 38.24379 | -9.82002 | 14191 ft | 437 kts | 50° |
| 2026-05-04 01:19 | 38.26218 | -9.78953 | 13602 ft | 432 kts | 51° |
| 2026-05-04 01:19 | 38.28032 | -9.75942 | 13052 ft | 426 kts | 51° |
| 2026-05-04 01:20 | 38.29820 | -9.72969 | 12506 ft | 421 kts | 51° |
| 2026-05-04 01:20 | 38.31595 | -9.70019 | 11964 ft | 417 kts | 51° |
| 2026-05-04 01:20 | 38.33347 | -9.67110 | 11422 ft | 412 kts | 51° |
| 2026-05-04 01:20 | 38.35075 | -9.64234 | 11013 ft | 403 kts | 51° |
| 2026-05-04 01:21 | 38.36746 | -9.61442 | 10673 ft | 390 kts | 51° |
| 2026-05-04 01:21 | 38.38370 | -9.58727 | 10307 ft | 380 kts | 51° |
| 2026-05-04 01:21 | 38.39945 | -9.56094 | 9947 ft | 369 kts | 51° |
| 2026-05-04 01:21 | 38.41484 | -9.53518 | 9554 ft | 359 kts | 51° |
| 2026-05-04 01:22 | 38.42950 | -9.51056 | 9125 ft | 340 kts | 51° |
| 2026-05-04 01:22 | 38.44340 | -9.48716 | 8730 ft | 322 kts | 51° |
| 2026-05-04 01:22 | 38.45664 | -9.46487 | 8345 ft | 307 kts | 51° |
| 2026-05-04 01:22 | 38.46929 | -9.44366 | 7964 ft | 294 kts | 50° |
| 2026-05-04 01:23 | 38.48149 | -9.42324 | 7522 ft | 287 kts | 50° |
| 2026-05-04 01:23 | 38.49362 | -9.40297 | 7041 ft | 287 kts | 50° |
| 2026-05-04 01:23 | 38.50560 | -9.38291 | 6675 ft | 284 kts | 50° |
| 2026-05-04 01:23 | 38.51757 | -9.36285 | 6303 ft | 281 kts | 50° |
| 2026-05-04 01:24 | 38.52930 | -9.34318 | 5913 ft | 278 kts | 50° |
| 2026-05-04 01:24 | 38.54126 | -9.32311 | 5156 ft | 288 kts | 50° |
| 2026-05-04 01:24 | 38.55338 | -9.30272 | 4712 ft | 287 kts | 50° |
| 2026-05-04 01:24 | 38.56532 | -9.28253 | 4330 ft | 282 kts | 50° |
| 2026-05-04 01:25 | 38.57697 | -9.26278 | 4074 ft | 273 kts | 50° |
| 2026-05-04 01:25 | 38.58828 | -9.24414 | 3957 ft | 258 kts | 44° |
| 2026-05-04 01:25 | 38.60229 | -9.23134 | 3808 ft | 240 kts | 21° |
| 2026-05-04 01:25 | 38.61751 | -9.22318 | 3530 ft | 235 kts | 19° |
| 2026-05-04 01:26 | 38.63257 | -9.21528 | 3230 ft | 233 kts | 19° |
| 2026-05-04 01:26 | 38.64711 | -9.20755 | 2911 ft | 221 kts | 19° |
| 2026-05-04 01:26 | 38.66096 | -9.20016 | 2623 ft | 209 kts | 19° |
| 2026-05-04 01:26 | 38.67402 | -9.19320 | 2344 ft | 197 kts | 19° |
| 2026-05-04 01:27 | 38.68623 | -9.18669 | 2099 ft | 183 kts | 19° |
| 2026-05-04 01:27 | 38.69747 | -9.18069 | 1853 ft | 167 kts | 19° |
| 2026-05-04 01:27 | 38.70778 | -9.17519 | 1620 ft | 154 kts | 19° |
| 2026-05-04 01:27 | 38.71731 | -9.17011 | 1424 ft | 145 kts | 19° |
| 2026-05-04 01:28 | 38.72645 | -9.16524 | 1219 ft | 142 kts | 20° |
| 2026-05-04 01:28 | 38.73562 | -9.16041 | 1040 ft | 142 kts | 20° |
| 2026-05-04 01:28 | 38.74479 | -9.15546 | 840 ft | 144 kts | 21° |
| 2026-05-04 01:28 | 38.75396 | -9.15034 | 648 ft | 146 kts | 21° |
| 2026-05-04 01:29 | 38.76330 | -9.14536 | 441 ft | 145 kts | 20° |
| 2026-05-04 01:29 | 38.77241 | -9.14067 | 364 ft | 132 kts | 22° |
| 2026-05-04 01:29 | 38.77951 | -9.13689 | 364 ft | 86 kts | 22° |
| 2026-05-04 01:29 | 38.78276 | -9.13490 | 365 ft | 34 kts | 45° |
| 2026-05-04 01:30 | 38.78373 | -9.13296 | 364 ft | 15 kts | 107° |
| 2026-05-04 01:30 | 38.78282 | -9.13285 | 363 ft | 17 kts | 202° |
| 2026-05-04 01:30 | 38.78157 | -9.13351 | 362 ft | 21 kts | 202° |
| 2026-05-04 01:30 | 38.78016 | -9.13413 | 358 ft | 22 kts | 181° |
| 2026-05-04 01:31 | 38.77875 | -9.13378 | 349 ft | 16 kts | 167° |
| 2026-05-04 01:31 | 38.77756 | -9.13344 | 343 ft | 17 kts | 168° |
| 2026-05-04 01:31 | 38.77639 | -9.13320 | 338 ft | 16 kts | 179° |
| 2026-05-04 01:31 | 38.77548 | -9.13311 | 338 ft | 12 kts | 167° |
| 2026-05-04 01:32 | 38.77470 | -9.13290 | 336 ft | 11 kts | 168° |
| 2026-05-04 01:32 | 38.77403 | -9.13273 | 337 ft | 9 kts | 168° |
| 2026-05-04 01:32 | 38.77345 | -9.13260 | 335 ft | 8 kts | 171° |
| 2026-05-04 01:32 | 38.77294 | -9.13250 | 336 ft | 7 kts | 171° |
| 2026-05-04 01:33 | 38.77250 | -9.13239 | 336 ft | 6 kts | 159° |
| 2026-05-04 01:33 | 38.77243 | -9.13203 | 337 ft | 0 kts | 99° |
| 2026-05-04 01:33 | 38.77245 | -9.13195 | 337 ft | 2 kts | 76° |
| 2026-05-04 01:33 | 38.77249 | -9.13178 | 332 ft | 3 kts | 72° |
| 2026-05-04 01:34 | 38.77253 | -9.13157 | 333 ft | 2 kts | 77° |
| 2026-05-04 01:34 | 38.77255 | -9.13149 | 337 ft | 0 kts | 77° |